Yusho Cherry — 3ELM7 — position and weather

sailwx.info

Track history (hours):
 
Tides and Currents Weather Stations Pressure Air Temp Water Temp Dewpoint Dewpoint Depression Visibility Wind Speed Wind Dir Waves Ship Positions

Yusho Cherry

Last reported at 2018-Jul-20 07:47 UTC. Time now 2018-Jul-22 14:29 UTC.
Position N 35°36' E 139°60'.

Length 110 m; draft 3.8 m.

Type: Ship. MMSI: 372991000.

Date/timePositionNaut miles runAvg speedWind from/ knotsBaromVisibWave heightAir tempDewpointWater temp
2018-Jul-20 07:47N 35°36' E 139°60'2 4.9
2018-Jul-20 07:27N 35°37' E 139°59'3 0.1
2018-Jul-19 07:14N 35°40' E 139°59'0 0.0
2018-Jul-19 06:56N 35°40' E 139°59'0 0.0
2018-Jul-17 21:30N 35°40' E 139°59'3 5.7
2018-Jul-17 20:59N 35°38' E 139°59'2 3.0
2018-Jul-17 20:16N 35°35' E 139°58'0 0.0
2018-Jul-17 19:52N 35°35' E 139°58'0 0.0
2018-Jul-17 18:46N 35°35' E 139°58'0 0.0
2018-Jul-17 03:16N 35°35' E 139°58'0 0.0
2018-Jul-16 19:46N 35°35' E 139°58'0 0.0
2018-Jul-16 17:34N 35°35' E 139°58'0 0.0
2018-Jul-16 06:52N 35°35' E 139°58'0 0.0
2018-Jul-16 05:28N 35°35' E 139°58'0 0.0
2018-Jul-16 04:58N 35°35' E 139°58'0 0.0
2018-Jul-16 04:28N 35°35' E 139°58'0 0.0
2018-Jul-16 03:34N 35°35' E 139°58'0 0.1
2018-Jul-16 03:19N 35°35' E 139°58'0 0.0
2018-Jul-16 02:52N 35°35' E 139°58'0 0.0
2018-Jul-16 01:07N 35°35' E 139°58'0 0.0
2018-Jul-15 23:58N 35°35' E 139°58'0 0.0
2018-Jul-15 20:40N 35°35' E 139°58'0 0.0
2018-Jul-15 20:28N 35°35' E 139°58'0 0.0
2018-Jul-15 17:34N 35°35' E 139°58'0 0.0
2018-Jul-15 17:28N 35°35' E 139°58'0 0.0
2018-Jul-15 14:22N 35°35' E 139°58'0 0.0
2018-Jul-15 13:10N 35°35' E 139°58'1 1.7
2018-Jul-15 12:42N 35°35' E 139°59'1 6.7
2018-Jul-15 12:30N 35°34' E 139°58'510.5
2018-Jul-15 12:00N 35°30' E 139°54'611.2
2018-Jul-15 11:30N 35°27' E 139°49'510.3
2018-Jul-15 11:00N 35°22' E 139°45'5 9.0
2018-Jul-15 10:30N 35°18' E 139°45'510.7
2018-Jul-15 10:00N 35°13' E 139°47'712.8
2018-Jul-15 09:29N 35°06' E 139°46'612.1
2018-Jul-15 09:00N 35°02' E 139°41'713.5
2018-Jul-15 08:27N 34°57' E 139°34'  
2018-Jul-10 18:18N 22°13' E 120°15'19 7.9
2018-Jul-10 15:54N 22°32' E 120°08'4 8.5
2018-Jul-10 15:25N 22°35' E 120°07'712.6
2018-Jul-10 14:52N 22°42' E 120°04'4 9.6
2018-Jul-10 14:24N 22°46' E 120°02'  
Track history (hours):
 
Tides and Currents Weather Stations Pressure Air Temp Water Temp Dewpoint Dewpoint Depression Visibility Wind Speed Wind Dir Waves Ship Positions

Yusho Cherry

Last reported at 2018-Jul-20 07:47 UTC. Time now 2018-Jul-22 14:29 UTC.
Position N 35°36' E 139°60'.

Length 110 m; draft 3.8 m.

Type: Ship. MMSI: 372991000.

Date/timePositionNaut miles runAvg speedWind from/ knotsBaromVisibWave heightAir tempDewpointWater temp
2018-Jul-20 07:47N 35°36' E 139°60'2 4.9
2018-Jul-20 07:27N 35°37' E 139°59'3 0.1
2018-Jul-19 07:14N 35°40' E 139°59'0 0.0
2018-Jul-19 06:56N 35°40' E 139°59'0 0.0
2018-Jul-17 21:30N 35°40' E 139°59'3 5.7
2018-Jul-17 20:59N 35°38' E 139°59'2 3.0
2018-Jul-17 20:16N 35°35' E 139°58'0 0.0
2018-Jul-17 19:52N 35°35' E 139°58'0 0.0
2018-Jul-17 18:46N 35°35' E 139°58'0 0.0
2018-Jul-17 03:16N 35°35' E 139°58'0 0.0
2018-Jul-16 19:46N 35°35' E 139°58'0 0.0
2018-Jul-16 17:34N 35°35' E 139°58'0 0.0
2018-Jul-16 06:52N 35°35' E 139°58'0 0.0
2018-Jul-16 05:28N 35°35' E 139°58'0 0.0
2018-Jul-16 04:58N 35°35' E 139°58'0 0.0
2018-Jul-16 04:28N 35°35' E 139°58'0 0.0
2018-Jul-16 03:34N 35°35' E 139°58'0 0.1
2018-Jul-16 03:19N 35°35' E 139°58'0 0.0
2018-Jul-16 02:52N 35°35' E 139°58'0 0.0
2018-Jul-16 01:07N 35°35' E 139°58'0 0.0
2018-Jul-15 23:58N 35°35' E 139°58'0 0.0
2018-Jul-15 20:40N 35°35' E 139°58'0 0.0
2018-Jul-15 20:28N 35°35' E 139°58'0 0.0
2018-Jul-15 17:34N 35°35' E 139°58'0 0.0
2018-Jul-15 17:28N 35°35' E 139°58'0 0.0
2018-Jul-15 14:22N 35°35' E 139°58'0 0.0
2018-Jul-15 13:10N 35°35' E 139°58'1 1.7
2018-Jul-15 12:42N 35°35' E 139°59'1 6.7
2018-Jul-15 12:30N 35°34' E 139°58'510.5
2018-Jul-15 12:00N 35°30' E 139°54'611.2
2018-Jul-15 11:30N 35°27' E 139°49'510.3
2018-Jul-15 11:00N 35°22' E 139°45'5 9.0
2018-Jul-15 10:30N 35°18' E 139°45'510.7
2018-Jul-15 10:00N 35°13' E 139°47'712.8
2018-Jul-15 09:29N 35°06' E 139°46'612.1
2018-Jul-15 09:00N 35°02' E 139°41'713.5
2018-Jul-15 08:27N 34°57' E 139°34'  
2018-Jul-10 18:18N 22°13' E 120°15'19 7.9
2018-Jul-10 15:54N 22°32' E 120°08'4 8.5
2018-Jul-10 15:25N 22°35' E 120°07'712.6
2018-Jul-10 14:52N 22°42' E 120°04'4 9.6
2018-Jul-10 14:24N 22°46' E 120°02'  

Dump ship's entire track history